sensor_id;sensor_type;location;lat;lon;timestamp;pressure;altitude;pressure_sealevel;temperature;humidity
596;BME280;19946;49.306;11.350;2023-06-26T00:00:53;96404.16;;;14.67;100.00
596;BME280;19946;49.306;11.350;2023-06-26T00:03:53;96487.59;;;15.01;100.00
596;BME280;19946;49.306;11.350;2023-06-26T00:06:53;96390.56;;;14.47;100.00
596;BME280;19946;49.306;11.350;2023-06-26T00:09:54;96430.41;;;14.74;100.00
596;BME280;19946;49.306;11.350;2023-06-26T00:12:54;96455.34;;;14.76;100.00
596;BME280;19946;49.306;11.350;2023-06-26T00:15:54;96472.16;;;14.82;100.00
596;BME280;19946;49.306;11.350;2023-06-26T00:18:55;96409.84;;;14.37;100.00
596;BME280;19946;49.306;11.350;2023-06-26T00:21:55;96416.03;;;14.36;100.00
596;BME280;19946;49.306;11.350;2023-06-26T00:24:55;96455.63;;;14.65;100.00
596;BME280;19946;49.306;11.350;2023-06-26T00:27:55;96423.38;;;14.40;100.00
596;BME280;19946;49.306;11.350;2023-06-26T00:30:56;96395.84;;;14.12;100.00
596;BME280;19946;49.306;11.350;2023-06-26T00:33:56;96413.09;;;14.13;100.00
596;BME280;19946;49.306;11.350;2023-06-26T00:36:58;96345.28;;;13.71;100.00
596;BME280;19946;49.306;11.350;2023-06-26T00:39:58;96457.63;;;14.45;100.00
596;BME280;19946;49.306;11.350;2023-06-26T00:42:58;96390.72;;;14.02;100.00
596;BME280;19946;49.306;11.350;2023-06-26T00:45:59;96436.81;;;14.28;100.00
596;BME280;19946;49.306;11.350;2023-06-26T00:49:00;96434.94;;;14.20;100.00
596;BME280;19946;49.306;11.350;2023-06-26T00:52:02;96446.84;;;14.22;100.00
596;BME280;19946;49.306;11.350;2023-06-26T00:55:05;96453.84;;;14.22;100.00
596;BME280;19946;49.306;11.350;2023-06-26T00:58:05;96437.22;;;14.15;100.00
596;BME280;19946;49.306;11.350;2023-06-26T01:01:06;96419.00;;;13.97;100.00
596;BME280;19946;49.306;11.350;2023-06-26T01:04:08;96391.66;;;13.75;100.00
596;BME280;19946;49.306;11.350;2023-06-26T01:07:18;96463.59;;;14.20;100.00
596;BME280;19946;49.306;11.350;2023-06-26T01:10:19;96426.59;;;13.91;100.00
596;BME280;19946;49.306;11.350;2023-06-26T01:13:20;96394.41;;;13.74;100.00
596;BME280;19946;49.306;11.350;2023-06-26T01:16:22;96373.69;;;13.64;100.00
596;BME280;19946;49.306;11.350;2023-06-26T01:19:24;96456.91;;;14.17;100.00
596;BME280;19946;49.306;11.350;2023-06-26T01:29:03;96377.97;;;13.91;100.00
596;BME280;19946;49.306;11.350;2023-06-26T01:32:05;96453.31;;;14.36;100.00
596;BME280;19946;49.306;11.350;2023-06-26T01:35:07;96413.66;;;13.99;100.00
596;BME280;19946;49.306;11.350;2023-06-26T01:38:26;96446.34;;;14.19;100.00
596;BME280;19946;49.306;11.350;2023-06-26T01:41:26;96416.41;;;13.97;100.00
596;BME280;19946;49.306;11.350;2023-06-26T01:44:28;96403.75;;;13.84;100.00
596;BME280;19946;49.306;11.350;2023-06-26T01:47:30;96393.06;;;13.87;100.00
596;BME280;19946;49.306;11.350;2023-06-26T01:50:33;96422.19;;;14.09;100.00
596;BME280;19946;49.306;11.350;2023-06-26T01:53:38;96369.09;;;13.58;100.00
596;BME280;19946;49.306;11.350;2023-06-26T01:56:42;96433.44;;;13.92;100.00
596;BME280;19946;49.306;11.350;2023-06-26T01:59:46;96400.38;;;13.66;100.00
596;BME280;19946;49.306;11.350;2023-06-26T02:02:47;96390.19;;;13.55;100.00
596;BME280;19946;49.306;11.350;2023-06-26T02:05:47;96388.88;;;13.51;100.00
596;BME280;19946;49.306;11.350;2023-06-26T02:08:48;96394.22;;;13.49;100.00
596;BME280;19946;49.306;11.350;2023-06-26T02:11:48;96423.94;;;13.65;100.00
596;BME280;19946;49.306;11.350;2023-06-26T02:14:48;96424.75;;;13.65;100.00
596;BME280;19946;49.306;11.350;2023-06-26T02:17:51;96408.69;;;13.52;100.00
596;BME280;19946;49.306;11.350;2023-06-26T02:20:51;96381.19;;;13.32;100.00
596;BME280;19946;49.306;11.350;2023-06-26T02:23:51;96400.06;;;13.34;100.00
596;BME280;19946;49.306;11.350;2023-06-26T02:26:51;96439.91;;;13.52;100.00
596;BME280;19946;49.306;11.350;2023-06-26T02:29:52;96413.00;;;13.43;100.00
596;BME280;19946;49.306;11.350;2023-06-26T02:32:52;96391.59;;;13.32;100.00
596;BME280;19946;49.306;11.350;2023-06-26T02:35:52;96415.50;;;13.63;100.00
596;BME280;19946;49.306;11.350;2023-06-26T02:38:53;96407.91;;;13.51;100.00
596;BME280;19946;49.306;11.350;2023-06-26T02:41:53;96405.53;;;13.40;100.00
596;BME280;19946;49.306;11.350;2023-06-26T02:44:55;96402.53;;;13.35;100.00
596;BME280;19946;49.306;11.350;2023-06-26T02:47:55;96430.09;;;13.46;100.00
596;BME280;19946;49.306;11.350;2023-06-26T02:50:55;96404.81;;;13.21;100.00
596;BME280;19946;49.306;11.350;2023-06-26T02:54:01;96390.75;;;13.13;100.00
596;BME280;19946;49.306;11.350;2023-06-26T02:57:01;96409.50;;;13.17;100.00
596;BME280;19946;49.306;11.350;2023-06-26T03:00:04;96419.84;;;13.27;100.00
596;BME280;19946;49.306;11.350;2023-06-26T03:03:09;96378.47;;;13.15;100.00
596;BME280;19946;49.306;11.350;2023-06-26T03:06:10;96380.84;;;13.27;100.00
596;BME280;19946;49.306;11.350;2023-06-26T03:09:10;96419.16;;;13.42;100.00
596;BME280;19946;49.306;11.350;2023-06-26T03:12:11;96424.31;;;13.34;100.00
596;BME280;19946;49.306;11.350;2023-06-26T03:15:11;96432.03;;;13.44;100.00
596;BME280;19946;49.306;11.350;2023-06-26T03:18:13;96402.53;;;13.18;100.00
596;BME280;19946;49.306;11.350;2023-06-26T03:21:13;96385.13;;;12.91;100.00
596;BME280;19946;49.306;11.350;2023-06-26T03:24:13;96435.97;;;13.30;100.00
596;BME280;19946;49.306;11.350;2023-06-26T03:27:14;96405.53;;;13.13;100.00
596;BME280;19946;49.306;11.350;2023-06-26T03:30:15;96440.38;;;13.30;100.00
596;BME280;19946;49.306;11.350;2023-06-26T03:33:17;96424.75;;;13.65;100.00
596;BME280;19946;49.306;11.350;2023-06-26T03:36:18;96383.06;;;13.57;100.00
596;BME280;19946;49.306;11.350;2023-06-26T03:39:19;96385.06;;;13.81;100.00
596;BME280;19946;49.306;11.350;2023-06-26T03:42:19;96421.69;;;14.31;100.00
596;BME280;19946;49.306;11.350;2023-06-26T03:45:19;96411.53;;;14.46;100.00
596;BME280;19946;49.306;11.350;2023-06-26T03:48:20;96424.03;;;14.68;100.00
596;BME280;19946;49.306;11.350;2023-06-26T03:51:20;96420.25;;;14.96;100.00
596;BME280;19946;49.306;11.350;2023-06-26T03:54:21;96415.88;;;15.05;100.00
596;BME280;19946;49.306;11.350;2023-06-26T03:57:22;96410.59;;;14.89;100.00
596;BME280;19946;49.306;11.350;2023-06-26T04:00:22;96417.09;;;14.85;100.00
596;BME280;19946;49.306;11.350;2023-06-26T04:03:23;96418.56;;;14.79;100.00
596;BME280;19946;49.306;11.350;2023-06-26T04:06:24;96409.09;;;14.78;100.00
596;BME280;19946;49.306;11.350;2023-06-26T04:09:25;96373.56;;;14.77;100.00
596;BME280;19946;49.306;11.350;2023-06-26T04:12:25;96398.38;;;14.81;100.00
596;BME280;19946;49.306;11.350;2023-06-26T04:15:26;96416.44;;;15.41;100.00
596;BME280;19946;49.306;11.350;2023-06-26T04:18:26;96419.16;;;15.90;100.00
596;BME280;19946;49.306;11.350;2023-06-26T04:21:27;96413.53;;;16.50;100.00
596;BME280;19946;49.306;11.350;2023-06-26T04:24:27;96402.13;;;16.90;100.00
596;BME280;19946;49.306;11.350;2023-06-26T04:27:28;96418.94;;;17.57;100.00
596;BME280;19946;49.306;11.350;2023-06-26T04:30:28;96418.06;;;17.73;100.00
596;BME280;19946;49.306;11.350;2023-06-26T04:33:29;96408.03;;;17.76;100.00
596;BME280;19946;49.306;11.350;2023-06-26T04:36:29;96386.22;;;17.84;100.00
596;BME280;19946;49.306;11.350;2023-06-26T04:39:30;96403.56;;;18.22;100.00
596;BME280;19946;49.306;11.350;2023-06-26T04:42:31;96386.84;;;18.23;100.00
596;BME280;19946;49.306;11.350;2023-06-26T04:45:31;96367.03;;;18.21;100.00
596;BME280;19946;49.306;11.350;2023-06-26T04:48:32;96415.78;;;19.18;100.00
596;BME280;19946;49.306;11.350;2023-06-26T04:51:32;96410.00;;;19.80;100.00
596;BME280;19946;49.306;11.350;2023-06-26T04:54:32;96398.25;;;20.25;100.00
596;BME280;19946;49.306;11.350;2023-06-26T04:57:33;96410.72;;;20.38;100.00
596;BME280;19946;49.306;11.350;2023-06-26T05:00:33;96398.44;;;20.24;100.00
596;BME280;19946;49.306;11.350;2023-06-26T05:03:35;96379.28;;;19.81;100.00
596;BME280;19946;49.306;11.350;2023-06-26T05:06:36;96410.19;;;20.21;100.00
596;BME280;19946;49.306;11.350;2023-06-26T05:09:37;96406.06;;;19.91;100.00
596;BME280;19946;49.306;11.350;2023-06-26T05:12:37;96406.72;;;20.21;100.00
596;BME280;19946;49.306;11.350;2023-06-26T05:15:38;96341.00;;;19.72;100.00
596;BME280;19946;49.306;11.350;2023-06-26T05:18:38;96364.91;;;19.98;100.00
596;BME280;19946;49.306;11.350;2023-06-26T05:21:38;96392.50;;;20.15;100.00
596;BME280;19946;49.306;11.350;2023-06-26T05:24:39;96401.84;;;20.39;94.79
596;BME280;19946;49.306;11.350;2023-06-26T05:27:40;96386.16;;;20.31;93.39
596;BME280;19946;49.306;11.350;2023-06-26T05:30:40;96383.97;;;20.62;88.87
596;BME280;19946;49.306;11.350;2023-06-26T05:33:43;96360.00;;;20.44;82.74
596;BME280;19946;49.306;11.350;2023-06-26T05:36:45;96390.69;;;20.71;78.65
596;BME280;19946;49.306;11.350;2023-06-26T05:39:48;96381.53;;;20.61;79.11
596;BME280;19946;49.306;11.350;2023-06-26T05:42:48;96371.09;;;20.18;85.31
596;BME280;19946;49.306;11.350;2023-06-26T05:45:49;96405.50;;;21.20;79.63
596;BME280;19946;49.306;11.350;2023-06-26T05:48:49;96395.69;;;20.94;86.37
596;BME280;19946;49.306;11.350;2023-06-26T05:51:50;96402.50;;;20.89;75.97
596;BME280;19946;49.306;11.350;2023-06-26T05:54:50;96385.19;;;21.62;70.19
596;BME280;19946;49.306;11.350;2023-06-26T05:57:51;96353.91;;;21.26;63.82
596;BME280;19946;49.306;11.350;2023-06-26T06:00:51;96396.94;;;21.59;59.33
596;BME280;19946;49.306;11.350;2023-06-26T06:03:51;96383.97;;;21.51;61.39
596;BME280;19946;49.306;11.350;2023-06-26T06:06:52;96352.72;;;21.55;60.98
596;BME280;19946;49.306;11.350;2023-06-26T06:09:52;96392.91;;;21.90;59.25
596;BME280;19946;49.306;11.350;2023-06-26T06:12:52;96377.53;;;22.00;59.56
596;BME280;19946;49.306;11.350;2023-06-26T06:15:54;96382.22;;;22.11;60.35
596;BME280;19946;49.306;11.350;2023-06-26T06:18:55;96341.78;;;22.43;58.61
596;BME280;19946;49.306;11.350;2023-06-26T06:21:56;96373.03;;;22.53;56.40
596;BME280;19946;49.306;11.350;2023-06-26T06:24:56;96375.88;;;22.45;58.62
596;BME280;19946;49.306;11.350;2023-06-26T06:27:56;96374.25;;;21.71;60.32
596;BME280;19946;49.306;11.350;2023-06-26T06:30:56;96387.00;;;21.74;63.46
596;BME280;19946;49.306;11.350;2023-06-26T06:33:57;96378.16;;;22.02;64.76
596;BME280;19946;49.306;11.350;2023-06-26T06:36:57;96382.97;;;21.72;66.54
596;BME280;19946;49.306;11.350;2023-06-26T06:39:57;96382.00;;;22.32;65.50
596;BME280;19946;49.306;11.350;2023-06-26T06:42:59;96341.41;;;22.33;66.22
596;BME280;19946;49.306;11.350;2023-06-26T06:45:59;96383.03;;;22.05;63.65
596;BME280;19946;49.306;11.350;2023-06-26T06:49:00;96306.13;;;21.88;64.16
596;BME280;19946;49.306;11.350;2023-06-26T06:52:00;96348.81;;;22.89;59.98
596;BME280;19946;49.306;11.350;2023-06-26T06:55:00;96367.25;;;23.02;56.44
596;BME280;19946;49.306;11.350;2023-06-26T06:58:05;96380.38;;;22.38;56.42
596;BME280;19946;49.306;11.350;2023-06-26T07:01:05;96364.69;;;22.63;57.12
596;BME280;19946;49.306;11.350;2023-06-26T07:04:05;96376.19;;;23.01;59.63
596;BME280;19946;49.306;11.350;2023-06-26T07:07:06;96329.41;;;23.08;57.55
596;BME280;19946;49.306;11.350;2023-06-26T07:10:08;96357.59;;;23.21;55.54
596;BME280;19946;49.306;11.350;2023-06-26T07:13:09;96368.38;;;23.19;55.87
596;BME280;19946;49.306;11.350;2023-06-26T07:16:09;96333.91;;;23.77;52.76
596;BME280;19946;49.306;11.350;2023-06-26T07:19:11;96327.88;;;23.25;55.69
596;BME280;19946;49.306;11.350;2023-06-26T07:22:11;96296.03;;;23.20;54.92
596;BME280;19946;49.306;11.350;2023-06-26T07:25:12;96348.84;;;23.58;54.12
596;BME280;19946;49.306;11.350;2023-06-26T07:28:12;96337.16;;;24.47;52.08
596;BME280;19946;49.306;11.350;2023-06-26T07:31:13;96357.34;;;24.85;51.46
596;BME280;19946;49.306;11.350;2023-06-26T07:34:13;96356.44;;;24.72;50.28
596;BME280;19946;49.306;11.350;2023-06-26T07:37:13;96325.56;;;25.03;49.78
596;BME280;19946;49.306;11.350;2023-06-26T07:40:14;96316.66;;;24.61;49.23
596;BME280;19946;49.306;11.350;2023-06-26T07:43:17;96358.41;;;24.77;49.37
596;BME280;19946;49.306;11.350;2023-06-26T07:46:18;96317.88;;;25.13;47.71
596;BME280;19946;49.306;11.350;2023-06-26T07:49:18;96343.63;;;24.69;46.72
596;BME280;19946;49.306;11.350;2023-06-26T07:52:19;96349.50;;;24.96;47.12
596;BME280;19946;49.306;11.350;2023-06-26T07:55:19;96309.72;;;25.15;45.00
596;BME280;19946;49.306;11.350;2023-06-26T07:58:20;96344.41;;;24.95;45.33
596;BME280;19946;49.306;11.350;2023-06-26T08:01:20;96352.38;;;25.25;45.74
596;BME280;19946;49.306;11.350;2023-06-26T08:04:23;96283.72;;;25.35;45.93
596;BME280;19946;49.306;11.350;2023-06-26T08:07:24;96303.94;;;25.48;45.44
596;BME280;19946;49.306;11.350;2023-06-26T08:10:24;96286.97;;;26.02;43.58
596;BME280;19946;49.306;11.350;2023-06-26T08:13:25;96339.66;;;25.75;43.89
596;BME280;19946;49.306;11.350;2023-06-26T08:16:25;96316.63;;;25.99;45.77
596;BME280;19946;49.306;11.350;2023-06-26T08:19:26;96343.31;;;26.15;43.83
596;BME280;19946;49.306;11.350;2023-06-26T08:22:26;96325.88;;;26.54;44.12
596;BME280;19946;49.306;11.350;2023-06-26T08:25:26;96278.88;;;25.85;46.60
596;BME280;19946;49.306;11.350;2023-06-26T08:28:26;96291.72;;;26.35;42.91
596;BME280;19946;49.306;11.350;2023-06-26T08:31:27;96317.41;;;27.21;43.87
596;BME280;19946;49.306;11.350;2023-06-26T08:34:27;96297.22;;;27.65;41.31
596;BME280;19946;49.306;11.350;2023-06-26T08:37:27;96290.03;;;26.92;42.48
596;BME280;19946;49.306;11.350;2023-06-26T08:40:28;96283.03;;;27.14;42.91
596;BME280;19946;49.306;11.350;2023-06-26T08:43:28;96310.38;;;27.88;42.40
596;BME280;19946;49.306;11.350;2023-06-26T08:46:28;96278.47;;;27.43;41.33
596;BME280;19946;49.306;11.350;2023-06-26T08:49:53;96315.88;;;26.97;41.87
596;BME280;19946;49.306;11.350;2023-06-26T08:56:07;96274.88;;;27.83;42.47
596;BME280;19946;49.306;11.350;2023-06-26T08:59:08;96304.16;;;27.66;42.45
596;BME280;19946;49.306;11.350;2023-06-26T09:02:11;96301.41;;;27.94;40.87
596;BME280;19946;49.306;11.350;2023-06-26T09:05:11;96298.91;;;27.71;42.13
596;BME280;19946;49.306;11.350;2023-06-26T09:08:12;96295.03;;;27.62;43.10
596;BME280;19946;49.306;11.350;2023-06-26T09:11:13;96297.69;;;28.89;42.20
596;BME280;19946;49.306;11.350;2023-06-26T09:14:14;96304.25;;;28.60;42.46
596;BME280;19946;49.306;11.350;2023-06-26T09:17:14;96304.22;;;29.74;42.59
596;BME280;19946;49.306;11.350;2023-06-26T09:20:14;96293.38;;;28.83;40.50
596;BME280;19946;49.306;11.350;2023-06-26T09:23:16;96275.34;;;28.30;43.12
596;BME280;19946;49.306;11.350;2023-06-26T09:26:16;96256.50;;;27.81;40.39
596;BME280;19946;49.306;11.350;2023-06-26T09:29:17;96273.53;;;29.23;38.92
596;BME280;19946;49.306;11.350;2023-06-26T09:32:17;96294.84;;;29.18;38.77
596;BME280;19946;49.306;11.350;2023-06-26T09:35:18;96234.59;;;28.73;39.38
596;BME280;19946;49.306;11.350;2023-06-26T09:38:18;96271.78;;;29.07;39.58
596;BME280;19946;49.306;11.350;2023-06-26T09:41:19;96265.78;;;27.79;38.90
596;BME280;19946;49.306;11.350;2023-06-26T09:44:20;96289.38;;;28.42;37.99
596;BME280;19946;49.306;11.350;2023-06-26T09:47:20;96263.22;;;29.31;39.02
596;BME280;19946;49.306;11.350;2023-06-26T09:50:22;96261.25;;;28.51;37.89
596;BME280;19946;49.306;11.350;2023-06-26T09:53:25;96248.06;;;28.40;37.73
596;BME280;19946;49.306;11.350;2023-06-26T09:56:27;96274.53;;;28.90;37.82
596;BME280;19946;49.306;11.350;2023-06-26T09:59:28;96274.25;;;28.86;38.33
596;BME280;19946;49.306;11.350;2023-06-26T10:02:28;96222.94;;;29.28;35.62
596;BME280;19946;49.306;11.350;2023-06-26T10:05:28;96284.97;;;30.04;36.21
596;BME280;19946;49.306;11.350;2023-06-26T10:08:30;96276.41;;;30.39;38.06
596;BME280;19946;49.306;11.350;2023-06-26T10:11:54;96275.63;;;30.01;37.23
596;BME280;19946;49.306;11.350;2023-06-26T10:14:56;96232.00;;;30.28;37.74
596;BME280;19946;49.306;11.350;2023-06-26T10:17:58;96245.88;;;30.30;37.53
596;BME280;19946;49.306;11.350;2023-06-26T10:20:59;96231.66;;;30.19;38.43
596;BME280;19946;49.306;11.350;2023-06-26T10:24:02;96244.94;;;31.34;39.60
596;BME280;19946;49.306;11.350;2023-06-26T10:30:18;96225.56;;;30.24;36.00
596;BME280;19946;49.306;11.350;2023-06-26T10:33:21;96216.78;;;30.28;33.81
596;BME280;19946;49.306;11.350;2023-06-26T10:36:30;96234.88;;;29.20;34.49
596;BME280;19946;49.306;11.350;2023-06-26T10:42:46;96232.84;;;29.64;35.21
596;BME280;19946;49.306;11.350;2023-06-26T10:45:48;96261.59;;;28.98;34.53
596;BME280;19946;49.306;11.350;2023-06-26T10:48:57;96225.75;;;29.16;37.61
596;BME280;19946;49.306;11.350;2023-06-26T10:52:02;96238.44;;;29.58;34.81
596;BME280;19946;49.306;11.350;2023-06-26T10:55:02;96216.66;;;28.85;33.97
596;BME280;19946;49.306;11.350;2023-06-26T10:58:02;96190.81;;;29.45;33.84
596;BME280;19946;49.306;11.350;2023-06-26T11:04:13;96228.50;;;29.53;36.40
596;BME280;19946;49.306;11.350;2023-06-26T11:07:22;96240.25;;;30.26;35.76
596;BME280;19946;49.306;11.350;2023-06-26T11:10:25;96231.03;;;30.07;35.70
596;BME280;19946;49.306;11.350;2023-06-26T11:13:26;96204.03;;;29.98;34.17
596;BME280;19946;49.306;11.350;2023-06-26T11:16:26;96196.72;;;30.26;35.64
596;BME280;19946;49.306;11.350;2023-06-26T11:19:27;96235.84;;;31.45;36.11
596;BME280;19946;49.306;11.350;2023-06-26T11:22:28;96195.06;;;30.20;33.92
596;BME280;19946;49.306;11.350;2023-06-26T11:25:29;96238.88;;;30.76;33.95
596;BME280;19946;49.306;11.350;2023-06-26T11:28:29;96246.88;;;30.66;31.80
596;BME280;19946;49.306;11.350;2023-06-26T11:31:32;96243.47;;;30.28;32.32
596;BME280;19946;49.306;11.350;2023-06-26T11:34:33;96198.66;;;29.93;34.07
596;BME280;19946;49.306;11.350;2023-06-26T11:37:33;96219.59;;;30.64;34.74
596;BME280;19946;49.306;11.350;2023-06-26T11:40:35;96241.13;;;30.37;32.87
596;BME280;19946;49.306;11.350;2023-06-26T11:43:36;96211.59;;;30.59;35.92
596;BME280;19946;49.306;11.350;2023-06-26T11:46:37;96235.81;;;30.47;33.21
596;BME280;19946;49.306;11.350;2023-06-26T11:49:37;96195.91;;;30.82;34.05
596;BME280;19946;49.306;11.350;2023-06-26T11:52:41;96218.75;;;31.46;35.75
596;BME280;19946;49.306;11.350;2023-06-26T11:55:42;96214.91;;;31.01;31.99
596;BME280;19946;49.306;11.350;2023-06-26T11:59:06;96203.38;;;30.91;34.52
596;BME280;19946;49.306;11.350;2023-06-26T12:02:07;96208.47;;;30.25;31.71
596;BME280;19946;49.306;11.350;2023-06-26T12:05:09;96204.38;;;30.12;33.33
596;BME280;19946;49.306;11.350;2023-06-26T12:08:10;96224.94;;;30.59;32.85
596;BME280;19946;49.306;11.350;2023-06-26T12:11:12;96231.66;;;30.19;33.50
596;BME280;19946;49.306;11.350;2023-06-26T12:14:13;96221.41;;;29.96;33.08
596;BME280;19946;49.306;11.350;2023-06-26T12:17:14;96222.94;;;30.34;33.83
596;BME280;19946;49.306;11.350;2023-06-26T12:20:18;96215.25;;;30.00;34.76
596;BME280;19946;49.306;11.350;2023-06-26T12:23:19;96211.72;;;28.99;34.42
596;BME280;19946;49.306;11.350;2023-06-26T12:26:20;96220.13;;;29.39;34.69
596;BME280;19946;49.306;11.350;2023-06-26T12:29:21;96197.03;;;29.92;33.63
596;BME280;19946;49.306;11.350;2023-06-26T12:32:25;96233.22;;;30.10;34.19
596;BME280;19946;49.306;11.350;2023-06-26T12:35:26;96183.09;;;30.27;33.29
596;BME280;19946;49.306;11.350;2023-06-26T12:38:33;96221.22;;;30.65;32.73
596;BME280;19946;49.306;11.350;2023-06-26T12:41:33;96215.00;;;29.65;32.57
596;BME280;19946;49.306;11.350;2023-06-26T12:44:33;96184.19;;;29.84;31.78
596;BME280;19946;49.306;11.350;2023-06-26T12:47:35;96224.00;;;31.05;36.45
596;BME280;19946;49.306;11.350;2023-06-26T12:50:47;96177.72;;;31.00;33.63
596;BME280;19946;49.306;11.350;2023-06-26T12:53:48;96211.41;;;30.96;33.52
596;BME280;19946;49.306;11.350;2023-06-26T12:56:48;96178.53;;;30.18;34.06
596;BME280;19946;49.306;11.350;2023-06-26T12:59:49;96212.97;;;30.19;33.91
596;BME280;19946;49.306;11.350;2023-06-26T13:02:49;96200.81;;;30.48;34.49
596;BME280;19946;49.306;11.350;2023-06-26T13:05:49;96218.53;;;29.75;35.04
596;BME280;19946;49.306;11.350;2023-06-26T13:08:50;96186.25;;;29.77;37.31
596;BME280;19946;49.306;11.350;2023-06-26T13:11:51;96216.28;;;29.94;32.98
596;BME280;19946;49.306;11.350;2023-06-26T13:14:52;96194.31;;;30.29;34.50
596;BME280;19946;49.306;11.350;2023-06-26T13:17:52;96210.56;;;30.18;34.77
596;BME280;19946;49.306;11.350;2023-06-26T13:20:52;96207.50;;;29.99;32.48
596;BME280;19946;49.306;11.350;2023-06-26T13:23:53;96179.84;;;30.20;33.87
596;BME280;19946;49.306;11.350;2023-06-26T13:26:53;96138.13;;;30.71;34.78
596;BME280;19946;49.306;11.350;2023-06-26T13:29:54;96177.31;;;30.45;34.10
596;BME280;19946;49.306;11.350;2023-06-26T13:32:54;96172.69;;;30.31;36.80
596;BME280;19946;49.306;11.350;2023-06-26T13:35:54;96180.31;;;30.64;35.79
596;BME280;19946;49.306;11.350;2023-06-26T13:38:55;96153.69;;;29.75;34.70
596;BME280;19946;49.306;11.350;2023-06-26T13:41:55;96188.44;;;30.27;33.08
596;BME280;19946;49.306;11.350;2023-06-26T13:44:55;96184.25;;;30.46;36.34
596;BME280;19946;49.306;11.350;2023-06-26T13:47:56;96164.13;;;31.16;33.25
596;BME280;19946;49.306;11.350;2023-06-26T13:50:58;96133.38;;;31.09;32.16
596;BME280;19946;49.306;11.350;2023-06-26T13:53:58;96140.06;;;31.11;32.49
596;BME280;19946;49.306;11.350;2023-06-26T13:57:00;96117.88;;;29.29;34.92
596;BME280;19946;49.306;11.350;2023-06-26T14:00:02;96157.94;;;30.18;35.45
596;BME280;19946;49.306;11.350;2023-06-26T14:03:12;96156.06;;;30.19;35.60
596;BME280;19946;49.306;11.350;2023-06-26T14:06:13;96108.06;;;30.34;34.15
596;BME280;19946;49.306;11.350;2023-06-26T14:09:13;96120.88;;;30.32;36.59
596;BME280;19946;49.306;11.350;2023-06-26T14:12:13;96112.50;;;30.03;34.19
596;BME280;19946;49.306;11.350;2023-06-26T14:15:14;96160.28;;;30.67;36.63
596;BME280;19946;49.306;11.350;2023-06-26T14:18:14;96124.47;;;30.73;35.38
596;BME280;19946;49.306;11.350;2023-06-26T14:21:14;96129.63;;;31.20;38.51
596;BME280;19946;49.306;11.350;2023-06-26T14:24:15;96165.69;;;30.92;36.04
596;BME280;19946;49.306;11.350;2023-06-26T14:27:15;96107.97;;;30.08;38.21
596;BME280;19946;49.306;11.350;2023-06-26T14:30:15;96142.47;;;30.15;36.57
596;BME280;19946;49.306;11.350;2023-06-26T14:33:16;96123.03;;;30.40;36.44
596;BME280;19946;49.306;11.350;2023-06-26T14:36:16;96146.22;;;30.24;37.53
596;BME280;19946;49.306;11.350;2023-06-26T14:39:16;96116.38;;;30.42;36.04
596;BME280;19946;49.306;11.350;2023-06-26T14:42:17;96136.19;;;29.94;37.26
596;BME280;19946;49.306;11.350;2023-06-26T14:45:17;96137.75;;;30.42;40.62
596;BME280;19946;49.306;11.350;2023-06-26T14:48:17;96119.16;;;30.88;36.69
596;BME280;19946;49.306;11.350;2023-06-26T14:51:19;96123.03;;;30.35;37.23
596;BME280;19946;49.306;11.350;2023-06-26T14:54:19;96114.25;;;30.44;37.28
596;BME280;19946;49.306;11.350;2023-06-26T14:57:20;96109.38;;;30.26;37.09
596;BME280;19946;49.306;11.350;2023-06-26T15:00:20;96132.22;;;29.97;40.42
596;BME280;19946;49.306;11.350;2023-06-26T15:03:21;96141.50;;;29.89;36.47
596;BME280;19946;49.306;11.350;2023-06-26T15:06:21;96087.72;;;30.23;40.08
596;BME280;19946;49.306;11.350;2023-06-26T15:09:21;96112.16;;;30.62;37.75
596;BME280;19946;49.306;11.350;2023-06-26T15:12:22;96136.34;;;30.25;36.61
596;BME280;19946;49.306;11.350;2023-06-26T15:15:24;96107.09;;;29.93;38.56
596;BME280;19946;49.306;11.350;2023-06-26T15:18:24;96086.56;;;29.98;39.01
596;BME280;19946;49.306;11.350;2023-06-26T15:21:25;96143.81;;;30.23;37.85
596;BME280;19946;49.306;11.350;2023-06-26T15:24:26;96091.25;;;30.38;38.62
596;BME280;19946;49.306;11.350;2023-06-26T15:27:26;96102.59;;;30.86;37.73
596;BME280;19946;49.306;11.350;2023-06-26T15:30:26;96108.59;;;29.73;37.81
596;BME280;19946;49.306;11.350;2023-06-26T15:33:27;96126.13;;;29.64;40.20
596;BME280;19946;49.306;11.350;2023-06-26T15:36:27;96122.66;;;29.27;39.04
596;BME280;19946;49.306;11.350;2023-06-26T15:39:27;96121.00;;;29.53;39.97
596;BME280;19946;49.306;11.350;2023-06-26T15:42:28;96106.13;;;29.67;40.69
596;BME280;19946;49.306;11.350;2023-06-26T15:45:31;96071.34;;;29.42;40.23
596;BME280;19946;49.306;11.350;2023-06-26T15:48:31;96101.91;;;29.71;42.45
596;BME280;19946;49.306;11.350;2023-06-26T15:51:32;96140.31;;;29.01;43.08
596;BME280;19946;49.306;11.350;2023-06-26T15:54:37;96110.72;;;28.49;43.92
596;BME280;19946;49.306;11.350;2023-06-26T15:57:38;96110.47;;;28.77;44.17
596;BME280;19946;49.306;11.350;2023-06-26T16:00:38;96108.94;;;28.54;45.34
596;BME280;19946;49.306;11.350;2023-06-26T16:03:39;96150.22;;;28.57;45.56
596;BME280;19946;49.306;11.350;2023-06-26T16:06:39;96098.03;;;28.12;47.15
596;BME280;19946;49.306;11.350;2023-06-26T16:09:39;96132.34;;;28.09;46.08
596;BME280;19946;49.306;11.350;2023-06-26T16:12:40;96100.47;;;27.92;45.96
596;BME280;19946;49.306;11.350;2023-06-26T16:15:40;96112.22;;;27.96;45.32
596;BME280;19946;49.306;11.350;2023-06-26T16:18:40;96122.13;;;27.79;47.24
596;BME280;19946;49.306;11.350;2023-06-26T16:21:41;96091.94;;;27.35;48.16
596;BME280;19946;49.306;11.350;2023-06-26T16:24:41;96128.84;;;27.31;49.18
596;BME280;19946;49.306;11.350;2023-06-26T16:27:42;96110.72;;;26.95;50.95